Ladybank, United Kingdom
Current Conditions -  °F | °C
As of 2:50 AM on Saturday 20 Dec 2014 (Local Time) from EGQL Reporting Station
Clear Clear  
Wind Chill: 33°   Ceiling: Unl
Heat Index: 43°   Visibility: 6mi
Dew Point: 34°   Wind: 26mph
Humidity: 70%   Direction: 280°W
Pressure: 29.74"   Gusts: NA
Location:  56.27°N, 3.12°W
Report Text: EGQL 200250Z 28023KT CAVOK 06/01 Q1007 BLU
Loading
Personal Weather Stations






























Interactive Weather Map New forecast layout! Learn more

10-Day Weather Forecast

Advertisements
Track Severe Weather on mobile